Charter Quote
Worldwide +1-877-727-2538 Call
Select Language Lang
SAFETY RELIABILITY EXPERIENCE

Deelen Airport (EHDL) - Jet Charter Services

AIRPORT INFORMATION
ICAOEHDL
LOCATIONArnhem, Netherlands
FACILITY TYPEAIRPORT
Runway Length (ft) Width (ft) Surface Type Elevation (ft)
20/02 9678 164 PEM 157.90164

At Paramount Business Jets you can hire chartered private jets to and from Deelen Airport with as little as 4 hours of notice. All flights booked via Paramount Business Jets are operated by certified direct air carriers that meet and exceed the FAA part 135 and 121 protocol or a foreign equivalent safety authority. Furthermore, Paramount Business Jets subscribes to ARGUS for their third party safety checks of operators, aircraft, and crews prior each and every flight to and from Deelen Airport and worldwide.

  • Quote a trip using Deelen Airport or call us 24/7 - 365 days a year at +1-877-727-2538.
Questions? Call +1-877-727-2538

FBOs at Deelen Airport, EHDL

NAME ADDRESS PHONE WEBSITE
Base Operations    (318) 571-8911   

METAR Weather Data at Deelen Airport, EHDL

STATIONEHDL
OBSERVEDTue Mar 19, 03:25 UTC
NOWTue Mar 19, 03:34 UTC
AGE9 min ago
WINDSE at 3 mph
VISIBILITY16 miles
METAREHDL 190325Z AUTO 13003KT 9999 NCD M03/M04 Q1025 BLU

Call us on +1-877-727-2538 (24 Hours) to Hire a Private Jet or Get a Quick Quote.

Find Airports Near any Location

Processing
...